sensor_id;sensor_type;location;lat;lon;timestamp;pressure;altitude;pressure_sealevel;temperature;humidity
71770;BME280;66386;52.122;5.420;2023-02-11T00:01:46;103501.59;;;5.37;91.09
71770;BME280;66386;52.122;5.420;2023-02-11T00:04:13;103511.81;;;5.38;91.32
71770;BME280;66386;52.122;5.420;2023-02-11T00:06:39;103509.34;;;5.41;90.84
71770;BME280;66386;52.122;5.420;2023-02-11T00:09:06;103500.84;;;5.41;90.73
71770;BME280;66386;52.122;5.420;2023-02-11T00:11:33;103491.47;;;5.40;90.89
71770;BME280;66386;52.122;5.420;2023-02-11T00:14:02;103492.31;;;5.39;91.29
71770;BME280;66386;52.122;5.420;2023-02-11T00:16:29;103499.97;;;5.39;91.04
71770;BME280;66386;52.122;5.420;2023-02-11T00:18:59;103500.84;;;5.41;91.28
71770;BME280;66386;52.122;5.420;2023-02-11T00:21:26;103500.00;;;5.40;90.79
71770;BME280;66386;52.122;5.420;2023-02-11T00:23:53;103488.91;;;5.40;90.82
71770;BME280;66386;52.122;5.420;2023-02-11T00:26:25;103501.66;;;5.40;91.01
71770;BME280;66386;52.122;5.420;2023-02-11T00:28:52;103504.16;;;5.38;91.14
71770;BME280;66386;52.122;5.420;2023-02-11T00:31:20;103498.19;;;5.36;91.10
71770;BME280;66386;52.122;5.420;2023-02-11T00:33:47;103495.59;;;5.35;91.08
71770;BME280;66386;52.122;5.420;2023-02-11T00:36:17;103497.22;;;5.33;90.94
71770;BME280;66386;52.122;5.420;2023-02-11T00:38:45;103498.13;;;5.35;90.93
71770;BME280;66386;52.122;5.420;2023-02-11T00:41:12;103494.81;;;5.37;91.24
71770;BME280;66386;52.122;5.420;2023-02-11T00:43:39;103500.00;;;5.40;90.79
71770;BME280;66386;52.122;5.420;2023-02-11T00:46:06;103498.19;;;5.36;91.49
71770;BME280;66386;52.122;5.420;2023-02-11T00:48:33;103498.19;;;5.36;90.98
71770;BME280;66386;52.122;5.420;2023-02-11T00:51:00;103504.91;;;5.34;91.11
71770;BME280;66386;52.122;5.420;2023-02-11T00:53:27;103508.25;;;5.32;91.10
71770;BME280;66386;52.122;5.420;2023-02-11T00:55:54;103508.25;;;5.32;91.41
71770;BME280;66386;52.122;5.420;2023-02-11T00:58:20;103496.41;;;5.34;91.39
71770;BME280;66386;52.122;5.420;2023-02-11T01:00:48;103488.66;;;5.31;91.21
71770;BME280;66386;52.122;5.420;2023-02-11T01:03:16;103486.97;;;5.31;91.37
71770;BME280;66386;52.122;5.420;2023-02-11T01:05:43;103482.66;;;5.29;91.58
71770;BME280;66386;52.122;5.420;2023-02-11T01:08:09;103479.97;;;5.24;91.19
71770;BME280;66386;52.122;5.420;2023-02-11T01:10:36;103470.56;;;5.21;91.43
71770;BME280;66386;52.122;5.420;2023-02-11T01:13:02;103461.09;;;5.17;91.56
71770;BME280;66386;52.122;5.420;2023-02-11T01:15:29;103470.41;;;5.17;91.63
71770;BME280;66386;52.122;5.420;2023-02-11T01:17:56;103474.56;;;5.13;91.80
71770;BME280;66386;52.122;5.420;2023-02-11T01:20:25;103470.28;;;5.12;91.72
71770;BME280;66386;52.122;5.420;2023-02-11T01:22:51;103460.06;;;5.11;91.71
71770;BME280;66386;52.122;5.420;2023-02-11T01:25:18;103444.66;;;5.07;91.88
71770;BME280;66386;52.122;5.420;2023-02-11T01:27:45;103435.25;;;5.05;92.00
71770;BME280;66386;52.122;5.420;2023-02-11T01:30:12;103441.19;;;5.04;92.20
71770;BME280;66386;52.122;5.420;2023-02-11T01:32:39;103446.28;;;5.04;92.29
71770;BME280;66386;52.122;5.420;2023-02-11T01:35:06;103460.56;;;4.99;92.05
71770;BME280;66386;52.122;5.420;2023-02-11T01:37:33;103473.31;;;4.99;91.97
71770;BME280;66386;52.122;5.420;2023-02-11T01:40:01;103475.94;;;5.02;91.99
71770;BME280;66386;52.122;5.420;2023-02-11T01:42:28;103493.84;;;5.03;92.26
71770;BME280;66386;52.122;5.420;2023-02-11T01:44:56;103486.22;;;5.05;92.20
71770;BME280;66386;52.122;5.420;2023-02-11T01:47:23;103485.34;;;5.03;92.15
71770;BME280;66386;52.122;5.420;2023-02-11T01:49:56;103480.28;;;5.04;91.93
71770;BME280;66386;52.122;5.420;2023-02-11T01:52:25;103477.69;;;5.03;92.23
71770;BME280;66386;52.122;5.420;2023-02-11T01:54:55;103474.25;;;5.01;92.30
71770;BME280;66386;52.122;5.420;2023-02-11T01:57:42;103475.91;;;5.00;92.44
71770;BME280;66386;52.122;5.420;2023-02-11T02:00:17;103480.16;;;5.00;92.25
71770;BME280;66386;52.122;5.420;2023-02-11T02:05:25;103485.94;;;4.94;92.43
71770;BME280;66386;52.122;5.420;2023-02-11T02:08:28;103492.75;;;4.95;92.32
71770;BME280;66386;52.122;5.420;2023-02-11T02:10:57;103490.16;;;4.94;92.55
71770;BME280;66386;52.122;5.420;2023-02-11T02:13:27;103478.19;;;4.91;92.31
71770;BME280;66386;52.122;5.420;2023-02-11T02:15:57;103479.84;;;4.90;92.32
71770;BME280;66386;52.122;5.420;2023-02-11T02:29:50;103475.22;;;4.77;92.48
71770;BME280;66386;52.122;5.420;2023-02-11T02:35:18;103474.91;;;4.66;92.74
71770;BME280;66386;52.122;5.420;2023-02-11T02:37:56;103471.31;;;4.60;92.82
71770;BME280;66386;52.122;5.420;2023-02-11T02:40:34;103461.06;;;4.58;92.92
71770;BME280;66386;52.122;5.420;2023-02-11T02:43:02;103452.53;;;4.56;93.01
71770;BME280;66386;52.122;5.420;2023-02-11T02:45:30;103447.38;;;4.54;92.99
71770;BME280;66386;52.122;5.420;2023-02-11T02:47:56;103455.84;;;4.53;93.05
71770;BME280;66386;52.122;5.420;2023-02-11T02:50:27;103454.19;;;4.55;93.30
71770;BME280;66386;52.122;5.420;2023-02-11T02:56:17;103466.22;;;4.60;93.55
71770;BME280;66386;52.122;5.420;2023-02-11T02:58:47;103458.59;;;4.61;93.57
71770;BME280;66386;52.122;5.420;2023-02-11T03:01:27;103468.13;;;4.67;93.75
71770;BME280;66386;52.122;5.420;2023-02-11T03:04:06;103459.66;;;4.68;93.77
71770;BME280;66386;52.122;5.420;2023-02-11T03:06:54;103459.66;;;4.68;93.68
71770;BME280;66386;52.122;5.420;2023-02-11T03:09:44;103445.16;;;4.65;93.52
71770;BME280;66386;52.122;5.420;2023-02-11T03:12:12;103450.25;;;4.65;93.90
71770;BME280;66386;52.122;5.420;2023-02-11T03:14:40;103445.09;;;4.64;93.52
71770;BME280;66386;52.122;5.420;2023-02-11T03:17:07;103444.31;;;4.65;93.76
71770;BME280;66386;52.122;5.420;2023-02-11T03:19:39;103434.09;;;4.65;94.07
71770;BME280;66386;52.122;5.420;2023-02-11T03:22:11;103427.28;;;4.64;93.99
71770;BME280;66386;52.122;5.420;2023-02-11T03:24:39;103429.00;;;4.65;94.13
71770;BME280;66386;52.122;5.420;2023-02-11T03:29:53;103424.78;;;4.65;94.09
71770;BME280;66386;52.122;5.420;2023-02-11T03:34:55;103428.09;;;4.63;94.23
71770;BME280;66386;52.122;5.420;2023-02-11T03:37:33;103422.94;;;4.61;94.20
71770;BME280;66386;52.122;5.420;2023-02-11T03:40:05;103423.88;;;4.63;94.14
71770;BME280;66386;52.122;5.420;2023-02-11T03:42:42;103418.75;;;4.62;94.54
71770;BME280;66386;52.122;5.420;2023-02-11T03:45:14;103413.66;;;4.62;94.23
71770;BME280;66386;52.122;5.420;2023-02-11T03:47:45;103410.09;;;4.57;94.47
71770;BME280;66386;52.122;5.420;2023-02-11T03:50:14;103405.00;;;4.57;94.56
71770;BME280;66386;52.122;5.420;2023-02-11T03:52:42;103404.09;;;4.54;94.50
71770;BME280;66386;52.122;5.420;2023-02-11T03:55:14;103405.63;;;4.49;94.66
71770;BME280;66386;52.122;5.420;2023-02-11T03:57:42;103414.88;;;4.46;94.65
71770;BME280;66386;52.122;5.420;2023-02-11T04:00:10;103413.19;;;4.46;94.74
71770;BME280;66386;52.122;5.420;2023-02-11T04:02:37;103419.19;;;4.48;94.82
71770;BME280;66386;52.122;5.420;2023-02-11T04:05:05;103423.44;;;4.49;94.99
71770;BME280;66386;52.122;5.420;2023-02-11T04:07:33;103430.19;;;4.47;95.06
71770;BME280;66386;52.122;5.420;2023-02-11T04:09:59;103429.38;;;4.48;95.10
71770;BME280;66386;52.122;5.420;2023-02-11T04:12:26;103435.28;;;4.47;95.22
71770;BME280;66386;52.122;5.420;2023-02-11T04:14:52;103427.69;;;4.49;94.92
71770;BME280;66386;52.122;5.420;2023-02-11T04:17:19;103426.94;;;4.51;95.27
71770;BME280;66386;52.122;5.420;2023-02-11T04:19:45;103426.94;;;4.51;95.45
71770;BME280;66386;52.122;5.420;2023-02-11T04:22:12;103431.19;;;4.52;95.31
71770;BME280;66386;52.122;5.420;2023-02-11T04:24:39;103441.53;;;4.57;95.36
71770;BME280;66386;52.122;5.420;2023-02-11T04:27:05;103432.19;;;4.58;95.28
71770;BME280;66386;52.122;5.420;2023-02-11T04:29:31;103429.66;;;4.58;95.22
71770;BME280;66386;52.122;5.420;2023-02-11T04:31:58;103440.72;;;4.60;95.34
71770;BME280;66386;52.122;5.420;2023-02-11T04:34:25;103436.56;;;4.62;95.30
71770;BME280;66386;52.122;5.420;2023-02-11T04:36:51;103442.56;;;4.64;95.36
71770;BME280;66386;52.122;5.420;2023-02-11T04:39:18;103441.78;;;4.66;95.40
71770;BME280;66386;52.122;5.420;2023-02-11T04:41:44;103441.78;;;4.66;95.41
71770;BME280;66386;52.122;5.420;2023-02-11T04:44:11;103441.84;;;4.68;95.29
71770;BME280;66386;52.122;5.420;2023-02-11T04:46:37;103441.84;;;4.68;95.48
71770;BME280;66386;52.122;5.420;2023-02-11T04:49:04;103446.13;;;4.69;95.34
71770;BME280;66386;52.122;5.420;2023-02-11T04:51:31;103441.13;;;4.72;95.52
71770;BME280;66386;52.122;5.420;2023-02-11T04:53:57;103445.44;;;4.75;95.24
71770;BME280;66386;52.122;5.420;2023-02-11T04:56:24;103436.97;;;4.76;95.48
71770;BME280;66386;52.122;5.420;2023-02-11T04:58:50;103442.09;;;4.77;95.58
71770;BME280;66386;52.122;5.420;2023-02-11T05:01:17;103438.78;;;4.80;95.62
71770;BME280;66386;52.122;5.420;2023-02-11T05:03:43;103438.84;;;4.81;95.69
71770;BME280;66386;52.122;5.420;2023-02-11T05:06:10;103441.47;;;4.84;95.41
71770;BME280;66386;52.122;5.420;2023-02-11T05:08:37;103437.22;;;4.83;95.53
71770;BME280;66386;52.122;5.420;2023-02-11T05:11:04;103443.25;;;4.87;95.36
71770;BME280;66386;52.122;5.420;2023-02-11T05:13:30;103446.59;;;4.86;95.87
71770;BME280;66386;52.122;5.420;2023-02-11T05:15:57;103447.63;;;4.91;95.32
71770;BME280;66386;52.122;5.420;2023-02-11T05:18:24;103445.09;;;4.93;95.62
71770;BME280;66386;52.122;5.420;2023-02-11T05:20:50;103447.66;;;4.93;95.47
71770;BME280;66386;52.122;5.420;2023-02-11T05:23:17;103443.41;;;4.93;95.53
71770;BME280;66386;52.122;5.420;2023-02-11T05:25:43;103444.25;;;4.92;95.58
71770;BME280;66386;52.122;5.420;2023-02-11T05:28:09;103449.41;;;4.94;95.73
71770;BME280;66386;52.122;5.420;2023-02-11T05:30:36;103443.47;;;4.95;95.48
71770;BME280;66386;52.122;5.420;2023-02-11T05:33:03;103441.78;;;4.95;95.46
71770;BME280;66386;52.122;5.420;2023-02-11T05:35:29;103454.56;;;4.97;95.59
71770;BME280;66386;52.122;5.420;2023-02-11T05:37:56;103438.41;;;4.96;95.61
71770;BME280;66386;52.122;5.420;2023-02-11T05:40:22;103429.09;;;4.97;95.54
71770;BME280;66386;52.122;5.420;2023-02-11T05:42:48;103439.31;;;4.98;95.37
71770;BME280;66386;52.122;5.420;2023-02-11T05:45:15;103432.56;;;5.00;95.54
71770;BME280;66386;52.122;5.420;2023-02-11T05:47:41;103425.75;;;4.99;95.62
71770;BME280;66386;52.122;5.420;2023-02-11T05:50:08;103435.94;;;4.99;95.48
71770;BME280;66386;52.122;5.420;2023-02-11T05:52:34;103431.72;;;5.00;95.61
71770;BME280;66386;52.122;5.420;2023-02-11T05:55:01;103435.94;;;4.99;95.64
71770;BME280;66386;52.122;5.420;2023-02-11T05:57:28;103435.94;;;4.99;95.85
71770;BME280;66386;52.122;5.420;2023-02-11T05:59:54;103431.69;;;4.98;95.54
71770;BME280;66386;52.122;5.420;2023-02-11T06:02:20;103436.84;;;5.01;95.74
71770;BME280;66386;52.122;5.420;2023-02-11T06:04:47;103440.34;;;5.05;95.62
71770;BME280;66386;52.122;5.420;2023-02-11T06:07:13;103437.03;;;5.07;95.79
71770;BME280;66386;52.122;5.420;2023-02-11T06:09:40;103439.56;;;5.07;95.74
71770;BME280;66386;52.122;5.420;2023-02-11T06:12:06;103451.59;;;5.12;95.84
71770;BME280;66386;52.122;5.420;2023-02-11T06:14:33;103450.75;;;5.11;95.63
71770;BME280;66386;52.122;5.420;2023-02-11T06:16:59;103449.09;;;5.13;95.57
71770;BME280;66386;52.122;5.420;2023-02-11T06:19:26;103447.34;;;5.12;95.77
71770;BME280;66386;52.122;5.420;2023-02-11T06:21:54;103450.81;;;5.14;95.84
71770;BME280;66386;52.122;5.420;2023-02-11T06:24:21;103450.88;;;5.16;95.81
71770;BME280;66386;52.122;5.420;2023-02-11T06:27:08;103451.78;;;5.19;95.97
71770;BME280;66386;52.122;5.420;2023-02-11T06:29:35;103445.94;;;5.22;95.82
71770;BME280;66386;52.122;5.420;2023-02-11T06:32:01;103449.31;;;5.22;96.42
71770;BME280;66386;52.122;5.420;2023-02-11T06:34:28;103454.50;;;5.25;96.07
71770;BME280;66386;52.122;5.420;2023-02-11T06:36:54;103447.69;;;5.24;95.94
71770;BME280;66386;52.122;5.420;2023-02-11T06:39:21;103440.06;;;5.24;96.21
71770;BME280;66386;52.122;5.420;2023-02-11T06:41:47;103445.19;;;5.26;95.92
71770;BME280;66386;52.122;5.420;2023-02-11T06:44:13;103449.47;;;5.27;95.78
71770;BME280;66386;52.122;5.420;2023-02-11T06:46:40;103448.59;;;5.27;96.03
71770;BME280;66386;52.122;5.420;2023-02-11T06:49:07;103441.75;;;5.25;96.02
71770;BME280;66386;52.122;5.420;2023-02-11T06:51:33;103441.03;;;5.30;96.04
71770;BME280;66386;52.122;5.420;2023-02-11T06:53:59;103446.13;;;5.30;96.06
71770;BME280;66386;52.122;5.420;2023-02-11T06:56:26;103441.00;;;5.28;95.67
71770;BME280;66386;52.122;5.420;2023-02-11T06:58:53;103448.63;;;5.28;96.03
71770;BME280;66386;52.122;5.420;2023-02-11T07:01:21;103445.22;;;5.28;96.01
71770;BME280;66386;52.122;5.420;2023-02-11T07:03:48;103444.47;;;5.30;95.95
71770;BME280;66386;52.122;5.420;2023-02-11T07:06:19;103459.81;;;5.32;96.10
71770;BME280;66386;52.122;5.420;2023-02-11T07:08:46;103457.28;;;5.33;96.23
71770;BME280;66386;52.122;5.420;2023-02-11T07:11:34;103462.44;;;5.35;96.36
71770;BME280;66386;52.122;5.420;2023-02-11T07:14:04;103461.69;;;5.39;96.01
71770;BME280;66386;52.122;5.420;2023-02-11T07:16:31;103467.69;;;5.41;96.18
71770;BME280;66386;52.122;5.420;2023-02-11T07:18:58;103466.88;;;5.42;96.16
71770;BME280;66386;52.122;5.420;2023-02-11T07:21:25;103466.88;;;5.42;96.18
71770;BME280;66386;52.122;5.420;2023-02-11T07:23:51;103470.28;;;5.42;96.09
71770;BME280;66386;52.122;5.420;2023-02-11T07:26:20;103483.06;;;5.44;96.13
71770;BME280;66386;52.122;5.420;2023-02-11T07:28:51;103476.28;;;5.45;96.15
71770;BME280;66386;52.122;5.420;2023-02-11T07:31:21;103484.94;;;5.50;95.91
71770;BME280;66386;52.122;5.420;2023-02-11T07:33:50;103490.13;;;5.53;96.26
71770;BME280;66386;52.122;5.420;2023-02-11T07:36:17;103490.28;;;5.59;96.29
71770;BME280;66386;52.122;5.420;2023-02-11T07:38:44;103481.84;;;5.62;96.31
71770;BME280;66386;52.122;5.420;2023-02-11T07:41:13;103484.41;;;5.62;96.23
71770;BME280;66386;52.122;5.420;2023-02-11T07:43:40;103492.91;;;5.62;96.21
71770;BME280;66386;52.122;5.420;2023-02-11T07:46:12;103494.69;;;5.65;96.25
71770;BME280;66386;52.122;5.420;2023-02-11T07:48:39;103498.97;;;5.66;96.08
71770;BME280;66386;52.122;5.420;2023-02-11T07:51:13;103495.63;;;5.68;96.24
71770;BME280;66386;52.122;5.420;2023-02-11T07:53:40;103502.44;;;5.69;96.09
71770;BME280;66386;52.122;5.420;2023-02-11T07:56:08;103499.09;;;5.70;95.92
71770;BME280;66386;52.122;5.420;2023-02-11T07:58:35;103488.91;;;5.72;96.09
71770;BME280;66386;52.122;5.420;2023-02-11T08:01:03;103488.91;;;5.72;96.27
71770;BME280;66386;52.122;5.420;2023-02-11T08:03:31;103502.59;;;5.74;96.08
71770;BME280;66386;52.122;5.420;2023-02-11T08:06:02;103488.09;;;5.73;96.05
71770;BME280;66386;52.122;5.420;2023-02-11T08:08:29;103493.25;;;5.74;95.98
71770;BME280;66386;52.122;5.420;2023-02-11T08:10:56;103494.13;;;5.76;96.14
71770;BME280;66386;52.122;5.420;2023-02-11T08:13:23;103495.91;;;5.79;95.94
71770;BME280;66386;52.122;5.420;2023-02-11T08:15:49;103497.72;;;5.83;95.97
71770;BME280;66386;52.122;5.420;2023-02-11T08:18:16;103502.03;;;5.86;96.14
71770;BME280;66386;52.122;5.420;2023-02-11T08:20:43;103504.69;;;5.89;95.92
71770;BME280;66386;52.122;5.420;2023-02-11T08:23:10;103493.69;;;5.91;95.81
71770;BME280;66386;52.122;5.420;2023-02-11T08:25:37;103497.13;;;5.93;95.95
71770;BME280;66386;52.122;5.420;2023-02-11T08:28:03;103499.75;;;5.97;96.08
71770;BME280;66386;52.122;5.420;2023-02-11T08:30:30;103502.38;;;5.98;95.74
71770;BME280;66386;52.122;5.420;2023-02-11T08:32:56;103506.72;;;6.01;95.40
71770;BME280;66386;52.122;5.420;2023-02-11T08:35:23;103502.47;;;6.01;95.54
71770;BME280;66386;52.122;5.420;2023-02-11T08:37:51;103506.78;;;6.04;95.64
71770;BME280;66386;52.122;5.420;2023-02-11T08:40:19;103509.38;;;6.05;95.50
71770;BME280;66386;52.122;5.420;2023-02-11T08:42:45;103514.56;;;6.08;95.63
71770;BME280;66386;52.122;5.420;2023-02-11T08:45:12;103521.41;;;6.09;95.34
71770;BME280;66386;52.122;5.420;2023-02-11T08:47:38;103518.88;;;6.11;95.43
71770;BME280;66386;52.122;5.420;2023-02-11T08:50:05;103517.25;;;6.15;95.41
71770;BME280;66386;52.122;5.420;2023-02-11T08:52:32;103518.16;;;6.17;95.17
71770;BME280;66386;52.122;5.420;2023-02-11T08:54:58;103515.69;;;6.20;95.28
71770;BME280;66386;52.122;5.420;2023-02-11T08:57:25;103525.16;;;6.24;95.27
71770;BME280;66386;52.122;5.420;2023-02-11T08:59:51;103528.63;;;6.27;95.16
71770;BME280;66386;52.122;5.420;2023-02-11T09:02:18;103527.84;;;6.30;95.07
71770;BME280;66386;52.122;5.420;2023-02-11T09:04:44;103527.19;;;6.37;94.83
71770;BME280;66386;52.122;5.420;2023-02-11T09:07:10;103534.13;;;6.43;94.84
71770;BME280;66386;52.122;5.420;2023-02-11T09:09:38;103539.34;;;6.47;94.55
71770;BME280;66386;52.122;5.420;2023-02-11T09:12:04;103540.34;;;6.53;94.55
71770;BME280;66386;52.122;5.420;2023-02-11T09:14:31;103537.88;;;6.57;94.54
71770;BME280;66386;52.122;5.420;2023-02-11T09:16:58;103540.56;;;6.63;94.49
71770;BME280;66386;52.122;5.420;2023-02-11T09:19:24;103543.25;;;6.70;94.30
71770;BME280;66386;52.122;5.420;2023-02-11T09:21:51;103551.06;;;6.76;94.27
71770;BME280;66386;52.122;5.420;2023-02-11T09:24:17;103546.03;;;6.79;94.12
71770;BME280;66386;52.122;5.420;2023-02-11T09:26:44;103548.63;;;6.80;93.88
71770;BME280;66386;52.122;5.420;2023-02-11T09:29:11;103552.13;;;6.84;93.70
71770;BME280;66386;52.122;5.420;2023-02-11T09:31:41;103553.88;;;6.87;93.42
71770;BME280;66386;52.122;5.420;2023-02-11T09:34:11;103549.63;;;6.87;93.50
71770;BME280;66386;52.122;5.420;2023-02-11T09:36:39;103555.66;;;6.89;93.27
71770;BME280;66386;52.122;5.420;2023-02-11T09:39:08;103553.97;;;6.91;93.38
71770;BME280;66386;52.122;5.420;2023-02-11T09:41:58;103557.56;;;6.98;93.26
71770;BME280;66386;52.122;5.420;2023-02-11T09:44:31;103561.88;;;7.02;93.11
71770;BME280;66386;52.122;5.420;2023-02-11T09:47:33;103565.44;;;7.09;92.97
71770;BME280;66386;52.122;5.420;2023-02-11T09:50:04;103566.38;;;7.14;92.74
71770;BME280;66386;52.122;5.420;2023-02-11T09:55:26;103570.03;;;7.25;92.50
71770;BME280;66386;52.122;5.420;2023-02-11T09:57:53;103575.25;;;7.30;92.40
71770;BME280;66386;52.122;5.420;2023-02-11T10:00:27;103578.78;;;7.35;92.28
71770;BME280;66386;52.122;5.420;2023-02-11T10:03:11;103579.66;;;7.37;92.07
71770;BME280;66386;52.122;5.420;2023-02-11T10:09:19;103583.34;;;7.50;91.40
71770;BME280;66386;52.122;5.420;2023-02-11T10:17:40;103598.16;;;7.65;90.73
71770;BME280;66386;52.122;5.420;2023-02-11T10:20:28;103601.72;;;7.73;90.56
71770;BME280;66386;52.122;5.420;2023-02-11T10:23:00;103602.84;;;7.86;90.35
71770;BME280;66386;52.122;5.420;2023-02-11T10:25:57;103602.38;;;8.07;90.41
71770;BME280;66386;52.122;5.420;2023-02-11T10:28:35;103612.78;;;8.16;89.74
71770;BME280;66386;52.122;5.420;2023-02-11T10:31:15;103611.41;;;8.35;89.23
71770;BME280;66386;52.122;5.420;2023-02-11T10:34:02;103618.56;;;8.52;88.83
71770;BME280;66386;52.122;5.420;2023-02-11T10:36:33;103610.16;;;8.61;87.82
71770;BME280;66386;52.122;5.420;2023-02-11T10:39:19;103614.41;;;8.59;87.86
71770;BME280;66386;52.122;5.420;2023-02-11T10:41:52;103617.91;;;8.65;87.11
71770;BME280;66386;52.122;5.420;2023-02-11T10:47:02;103622.03;;;8.57;86.78
71770;BME280;66386;52.122;5.420;2023-02-11T10:49:41;103636.53;;;8.53;87.02
71770;BME280;66386;52.122;5.420;2023-02-11T10:52:22;103625.31;;;8.48;86.69
71770;BME280;66386;52.122;5.420;2023-02-11T10:57:52;103621.75;;;8.40;86.64
71770;BME280;66386;52.122;5.420;2023-02-11T11:00:28;103625.97;;;8.38;86.42
71770;BME280;66386;52.122;5.420;2023-02-11T11:03:03;103619.16;;;8.38;86.63
71770;BME280;66386;52.122;5.420;2023-02-11T11:05:48;103623.56;;;8.44;87.02
71770;BME280;66386;52.122;5.420;2023-02-11T11:08:16;103637.34;;;8.52;86.50
71770;BME280;66386;52.122;5.420;2023-02-11T11:10:48;103628.91;;;8.60;86.06
71770;BME280;66386;52.122;5.420;2023-02-11T11:13:34;103634.13;;;8.66;85.89
71770;BME280;66386;52.122;5.420;2023-02-11T11:18:33;103645.66;;;8.89;85.63
71770;BME280;66386;52.122;5.420;2023-02-11T11:21:02;103642.13;;;8.83;85.13
71770;BME280;66386;52.122;5.420;2023-02-11T11:23:31;103646.47;;;8.87;85.28
71770;BME280;66386;52.122;5.420;2023-02-11T11:26:13;103656.69;;;8.85;85.00
71770;BME280;66386;52.122;5.420;2023-02-11T11:31:34;103654.09;;;8.82;85.26
71770;BME280;66386;52.122;5.420;2023-02-11T11:34:20;103662.72;;;8.89;84.53
71770;BME280;66386;52.122;5.420;2023-02-11T11:36:48;103661.06;;;8.91;84.57
71770;BME280;66386;52.122;5.420;2023-02-11T11:39:20;103666.28;;;8.97;83.98
71770;BME280;66386;52.122;5.420;2023-02-11T11:44:36;103668.22;;;9.12;84.00
71770;BME280;66386;52.122;5.420;2023-02-11T11:52:36;103650.53;;;9.31;82.90
71770;BME280;66386;52.122;5.420;2023-02-11T11:55:12;103641.16;;;9.36;82.88
71770;BME280;66386;52.122;5.420;2023-02-11T11:57:39;103637.81;;;9.40;82.30
71770;BME280;66386;52.122;5.420;2023-02-11T12:09:18;103631.03;;;9.45;82.46
71770;BME280;66386;52.122;5.420;2023-02-11T12:12:04;103631.06;;;9.47;81.77
71770;BME280;66386;52.122;5.420;2023-02-11T12:20:22;103630.91;;;9.36;81.45
71770;BME280;66386;52.122;5.420;2023-02-11T12:26:23;103631.03;;;9.43;81.47
71770;BME280;66386;52.122;5.420;2023-02-11T12:29:05;103637.03;;;9.47;81.14
71770;BME280;66386;52.122;5.420;2023-02-11T12:37:44;103628.28;;;9.33;80.95
71770;BME280;66386;52.122;5.420;2023-02-11T12:43:49;103631.72;;;9.32;81.30
71770;BME280;66386;52.122;5.420;2023-02-11T12:49:10;103641.28;;;9.42;81.21
71770;BME280;66386;52.122;5.420;2023-02-11T12:51:53;103622.44;;;9.44;80.35
71770;BME280;66386;52.122;5.420;2023-02-11T12:54:43;103631.09;;;9.51;80.67
71770;BME280;66386;52.122;5.420;2023-02-11T12:57:21;103631.13;;;9.53;79.99
71770;BME280;66386;52.122;5.420;2023-02-11T13:02:40;103625.91;;;9.45;79.64
71770;BME280;66386;52.122;5.420;2023-02-11T13:05:28;103630.34;;;9.60;80.18
71770;BME280;66386;52.122;5.420;2023-02-11T13:08:18;103617.69;;;9.74;79.73
71770;BME280;66386;52.122;5.420;2023-02-11T13:10:49;103620.31;;;9.80;79.32
71770;BME280;66386;52.122;5.420;2023-02-11T13:13:38;103628.03;;;9.80;78.90
71770;BME280;66386;52.122;5.420;2023-02-11T13:16:35;103634.09;;;9.87;78.39
71770;BME280;66386;52.122;5.420;2023-02-11T13:24:21;103621.34;;;9.94;78.09
71770;BME280;66386;52.122;5.420;2023-02-11T13:27:10;103618.84;;;10.02;78.35
71770;BME280;66386;52.122;5.420;2023-02-11T13:32:21;103618.06;;;10.08;77.86
71770;BME280;66386;52.122;5.420;2023-02-11T13:40:06;103605.97;;;10.01;78.14
71770;BME280;66386;52.122;5.420;2023-02-11T13:42:49;103612.84;;;10.02;77.94
71770;BME280;66386;52.122;5.420;2023-02-11T13:45:33;103610.22;;;9.97;78.22
71770;BME280;66386;52.122;5.420;2023-02-11T13:48:04;103608.56;;;10.02;78.30
71770;BME280;66386;52.122;5.420;2023-02-11T13:50:45;103619.75;;;10.09;78.52
71770;BME280;66386;52.122;5.420;2023-02-11T13:53:17;103616.34;;;10.11;78.25
71770;BME280;66386;52.122;5.420;2023-02-11T13:55:46;103615.50;;;10.11;77.99
71770;BME280;66386;52.122;5.420;2023-02-11T14:00:46;103613.84;;;10.18;78.28
71770;BME280;66386;52.122;5.420;2023-02-11T14:03:29;103612.13;;;10.13;77.74
71770;BME280;66386;52.122;5.420;2023-02-11T14:06:18;103618.00;;;10.03;77.46
71770;BME280;66386;52.122;5.420;2023-02-11T14:14:24;103618.72;;;9.91;78.44
71770;BME280;66386;52.122;5.420;2023-02-11T14:19:30;103622.94;;;9.83;78.34
71770;BME280;66386;52.122;5.420;2023-02-11T14:22:11;103622.00;;;9.79;78.65
71770;BME280;66386;52.122;5.420;2023-02-11T14:27:19;103634.00;;;9.79;78.97
71770;BME280;66386;52.122;5.420;2023-02-11T14:32:37;103623.81;;;9.88;78.93
71770;BME280;66386;52.122;5.420;2023-02-11T14:41:00;103630.72;;;9.92;78.78
71770;BME280;66386;52.122;5.420;2023-02-11T14:43:42;103633.28;;;9.92;78.86
71770;BME280;66386;52.122;5.420;2023-02-11T14:46:13;103630.72;;;9.92;78.43
71770;BME280;66386;52.122;5.420;2023-02-11T14:48:44;103634.13;;;9.90;78.61
71770;BME280;66386;52.122;5.420;2023-02-11T14:51:18;103632.41;;;9.87;78.20
71770;BME280;66386;52.122;5.420;2023-02-11T14:53:58;103637.53;;;9.86;78.67
71770;BME280;66386;52.122;5.420;2023-02-11T14:56:29;103635.78;;;9.85;78.03
71770;BME280;66386;52.122;5.420;2023-02-11T14:58:59;103633.97;;;9.76;78.37
71770;BME280;66386;52.122;5.420;2023-02-11T15:01:39;103638.19;;;9.72;78.55
71770;BME280;66386;52.122;5.420;2023-02-11T15:06:50;103638.13;;;9.66;78.82
71770;BME280;66386;52.122;5.420;2023-02-11T15:09:20;103637.28;;;9.66;78.96
71770;BME280;66386;52.122;5.420;2023-02-11T15:11:55;103635.56;;;9.68;78.69
71770;BME280;66386;52.122;5.420;2023-02-11T15:14:31;103638.13;;;9.66;78.99
71770;BME280;66386;52.122;5.420;2023-02-11T15:17:04;103639.03;;;9.68;79.12
71770;BME280;66386;52.122;5.420;2023-02-11T15:19:42;103643.25;;;9.65;79.07
71770;BME280;66386;52.122;5.420;2023-02-11T15:22:20;103656.06;;;9.61;79.35
71770;BME280;66386;52.122;5.420;2023-02-11T15:25:11;103654.31;;;9.60;79.32
71770;BME280;66386;52.122;5.420;2023-02-11T15:27:59;103662.81;;;9.55;79.31